Time;durP1;ratioP1;P1;durP2;ratioP2;P2;SDS_P1;SDS_P2;PMS_P1;PMS_P2;Temp;Humidity;BMP_temperature;BMP_pressure;BME280_temperature;BME280_humidity;BME280_pressure;Samples;Min_cycle;Max_cycle;Signal;HPM_P1;HPM_P2
2021/07/06 12:17:30;;;;;;;1.83;1.40;;;;;;;;;;5122779;27;20737;-52
2021/07/06 12:19:56;;;;;;;2.00;1.30;;;;;;;;;;5123712;27;24389;-53
2021/07/06 12:22:22;;;;;;;2.65;1.70;;;;;;;;;;5112825;27;25023;-53
2021/07/06 12:24:47;;;;;;;1.30;1.20;;;;;;;;;;5123351;27;24530;-53
2021/07/06 12:27:15;;;;;;;1.90;1.40;;;;;;;;;;5124546;27;24422;-54
2021/07/06 12:29:40;;;;;;;1.70;1.20;;;;;;;;;;5103509;28;24414;-53
2021/07/06 12:32:12;;;;;;;1.60;1.20;;;;;;;;;;5094434;27;24440;-53
2021/07/06 12:34:38;;;;;;;1.42;1.30;;;;;;;;;;5082797;28;24920;-53
2021/07/06 12:37:04;;;;;;;1.20;1.10;;;;;;;;;;5084627;28;24875;-54
2021/07/06 12:39:33;;;;;;;1.60;1.50;;;;;;;;;;5084510;28;25034;-53
2021/07/06 12:41:58;;;;;;;1.85;1.25;;;;;;;;;;5098656;28;24905;-54
2021/07/06 12:44:34;;;;;;;1.30;1.10;;;;;;;;;;5107943;28;24898;-54
2021/07/06 12:47:17;;;;;;;2.10;1.10;;;;;;;;;;5101110;28;24431;-54
2021/07/06 12:49:49;;;;;;;1.50;1.10;;;;;;;;;;5093203;28;24983;-54
2021/07/06 12:52:15;;;;;;;1.40;1.30;;;;;;;;;;5113311;28;24409;-54
2021/07/06 12:54:40;;;;;;;1.83;1.20;;;;;;;;;;5124735;27;24767;-54
2021/07/06 12:57:06;;;;;;;24.20;17.58;;;;;;;;;;5124770;27;24394;-54
2021/07/06 12:59:33;;;;;;;2.70;1.33;;;;;;;;;;5102165;28;24794;-54
2021/07/06 13:02:15;;;;;;;1.73;1.40;;;;;;;;;;5102425;28;24967;-54
2021/07/06 13:04:47;;;;;;;1.70;1.40;;;;;;;;;;5103748;28;24982;-54
2021/07/06 13:07:12;;;;;;;1.40;1.30;;;;;;;;;;5108714;28;25018;-54
2021/07/06 13:09:38;;;;;;;1.50;1.40;;;;;;;;;;5089162;28;24419;-54
2021/07/06 13:12:13;;;;;;;2.38;1.40;;;;;;;;;;5083707;28;24414;-54
2021/07/06 13:14:38;;;;;;;1.77;1.40;;;;;;;;;;5091393;28;24696;-54
2021/07/06 13:17:24;;;;;;;1.65;1.38;;;;;;;;;;5106426;27;24476;-54
2021/07/06 13:20:19;;;;;;;2.20;1.40;;;;;;;;;;5089366;28;24418;-55
2021/07/06 13:22:44;;;;;;;1.60;1.50;;;;;;;;;;5090075;28;24530;-55
2021/07/06 13:25:10;;;;;;;1.20;1.20;;;;;;;;;;5110754;28;24504;-55
2021/07/06 13:27:35;;;;;;;1.80;1.35;;;;;;;;;;5111258;27;24525;-55
2021/07/06 13:30:02;;;;;;;1.80;1.42;;;;;;;;;;5090412;28;24992;-54
2021/07/06 13:32:28;;;;;;;1.38;1.27;;;;;;;;;;5093717;28;24525;-54
2021/07/06 13:34:53;;;;;;;1.83;1.60;;;;;;;;;;5094397;28;24513;-55
2021/07/06 13:37:18;;;;;;;1.40;1.30;;;;;;;;;;5091594;28;24450;-55
2021/07/06 13:39:43;;;;;;;1.40;1.30;;;;;;;;;;5088815;28;24421;-60
2021/07/06 13:42:12;;;;;;;1.60;1.50;;;;;;;;;;5093397;28;24513;-55
2021/07/06 13:44:37;;;;;;;1.40;1.30;;;;;;;;;;5086875;28;24815;-54
2021/07/06 13:47:03;;;;;;;1.40;1.30;;;;;;;;;;5091700;28;24423;-56
2021/07/06 13:49:30;;;;;;;1.50;1.40;;;;;;;;;;5078624;28;24819;-54
2021/07/06 13:51:58;;;;;;;2.03;1.50;;;;;;;;;;5076735;28;24426;-54
2021/07/06 13:54:24;;;;;;;1.42;1.33;;;;;;;;;;5090735;28;24460;-53
2021/07/06 13:56:50;;;;;;;1.35;1.25;;;;;;;;;;5085944;28;24503;-54
2021/07/06 13:59:15;;;;;;;1.97;1.63;;;;;;;;;;5077037;28;24517;-54
2021/07/06 14:01:40;;;;;;;2.55;1.10;;;;;;;;;;5092290;28;24507;-55
2021/07/06 14:04:05;;;;;;;1.60;1.50;;;;;;;;;;5094668;28;25178;-54
2021/07/06 14:06:31;;;;;;;1.40;1.30;;;;;;;;;;5077436;28;24495;-54
2021/07/06 14:08:56;;;;;;;2.57;1.40;;;;;;;;;;5076745;28;24445;-54
2021/07/06 14:11:21;;;;;;;1.50;1.20;;;;;;;;;;5070518;28;24455;-55
2021/07/06 14:13:46;;;;;;;2.07;1.20;;;;;;;;;;5069290;28;24498;-54
2021/07/06 14:16:11;;;;;;;2.15;1.50;;;;;;;;;;5069389;28;24439;-55
2021/07/06 14:18:36;;;;;;;1.57;1.40;;;;;;;;;;5076010;28;24501;-55
2021/07/06 14:21:01;;;;;;;1.73;1.40;;;;;;;;;;5083059;28;24419;-55
2021/07/06 14:23:27;;;;;;;2.00;1.67;;;;;;;;;;5087313;28;24419;-54
2021/07/06 14:25:52;;;;;;;1.60;1.50;;;;;;;;;;5079940;28;25056;-55
2021/07/06 14:28:17;;;;;;;1.70;1.60;;;;;;;;;;5096541;28;24412;-54
2021/07/06 14:30:43;;;;;;;1.60;1.50;;;;;;;;;;5079664;28;24686;-54
2021/07/06 14:33:08;;;;;;;1.45;1.35;;;;;;;;;;5067714;28;24423;-55
2021/07/06 14:35:34;;;;;;;1.30;1.20;;;;;;;;;;5068217;28;24430;-54
2021/07/06 14:37:59;;;;;;;2.80;1.50;;;;;;;;;;5068830;28;24777;-55
2021/07/06 14:40:24;;;;;;;1.50;1.40;;;;;;;;;;5068535;28;24551;-55
2021/07/06 14:42:50;;;;;;;1.40;1.30;;;;;;;;;;5068077;28;25019;-54
2021/07/06 14:45:15;;;;;;;1.50;1.40;;;;;;;;;;5068176;28;25019;-54
2021/07/06 14:47:40;;;;;;;1.50;1.40;;;;;;;;;;5072486;28;24417;-54
2021/07/06 14:50:05;;;;;;;1.40;1.30;;;;;;;;;;5079648;28;24407;-55
2021/07/06 14:52:31;;;;;;;1.97;1.50;;;;;;;;;;5068114;28;24960;-55
2021/07/06 14:54:56;;;;;;;2.05;1.50;;;;;;;;;;5067688;28;24987;-55
2021/07/06 14:57:26;;;;;;;1.40;1.30;;;;;;;;;;5067837;28;24430;-55
2021/07/06 14:59:51;;;;;;;1.60;1.50;;;;;;;;;;5072745;28;24849;-54
2021/07/06 15:02:16;;;;;;;1.50;1.40;;;;;;;;;;5074507;28;25093;-55
2021/07/06 15:04:41;;;;;;;1.45;1.35;;;;;;;;;;5067871;28;24836;-55
2021/07/06 15:07:06;;;;;;;1.30;1.20;;;;;;;;;;5067819;28;24924;-55
2021/07/06 15:09:33;;;;;;;1.60;1.50;;;;;;;;;;5067420;28;24450;-55
2021/07/06 15:11:58;;;;;;;1.47;1.37;;;;;;;;;;5080297;28;24426;-54
2021/07/06 15:14:23;;;;;;;1.33;1.23;;;;;;;;;;5080233;28;24496;-54
2021/07/06 15:16:48;;;;;;;1.40;1.30;;;;;;;;;;5085806;28;24776;-55
2021/07/06 15:19:13;;;;;;;1.50;1.40;;;;;;;;;;5068760;28;24434;-54
2021/07/06 15:21:38;;;;;;;1.67;1.58;;;;;;;;;;5071865;28;24445;-55
2021/07/06 15:24:05;;;;;;;1.57;1.47;;;;;;;;;;5087136;28;25175;-55
2021/07/06 15:26:30;;;;;;;1.50;1.40;;;;;;;;;;5069908;28;24465;-54
2021/07/06 15:28:56;;;;;;;1.50;1.40;;;;;;;;;;5073723;28;24807;-54
2021/07/06 15:31:21;;;;;;;2.00;1.50;;;;;;;;;;5091855;28;24458;-54
2021/07/06 15:33:46;;;;;;;2.97;2.25;;;;;;;;;;5070579;28;24414;-55
2021/07/06 15:36:11;;;;;;;5.60;2.17;;;;;;;;;;5078707;28;24415;-55
2021/07/06 15:38:36;;;;;;;4.90;2.00;;;;;;;;;;5076864;28;24430;-55
2021/07/06 15:41:03;;;;;;;6.10;2.55;;;;;;;;;;5070636;28;24510;-55
2021/07/06 15:43:28;;;;;;;4.43;2.70;;;;;;;;;;5071077;28;24415;-55
2021/07/06 15:45:53;;;;;;;3.20;2.90;;;;;;;;;;5076220;28;24438;-56
2021/07/06 15:48:18;;;;;;;3.03;2.70;;;;;;;;;;5067793;28;24422;-54
2021/07/06 15:50:43;;;;;;;3.20;2.90;;;;;;;;;;5065858;28;24425;-54
2021/07/06 15:53:10;;;;;;;3.00;2.70;;;;;;;;;;5081182;28;24407;-53
2021/07/06 15:55:35;;;;;;;3.40;2.90;;;;;;;;;;5067132;28;24407;-53
2021/07/06 15:58:00;;;;;;;5.20;3.03;;;;;;;;;;5063999;28;24401;-53
2021/07/06 16:00:26;;;;;;;4.00;2.90;;;;;;;;;;5077363;28;24761;-54
2021/07/06 16:02:51;;;;;;;4.10;3.03;;;;;;;;;;5085186;28;25292;-53
2021/07/06 16:05:17;;;;;;;4.27;3.00;;;;;;;;;;5078898;28;24422;-53
2021/07/06 16:07:44;;;;;;;5.90;3.33;;;;;;;;;;5071727;28;24426;-53
2021/07/06 16:10:10;;;;;;;3.20;2.90;;;;;;;;;;5083644;28;24414;-55
2021/07/06 16:12:36;;;;;;;3.00;2.50;;;;;;;;;;5073438;28;25922;-54
2021/07/06 16:15:01;;;;;;;3.70;3.10;;;;;;;;;;5072834;28;24444;-53
2021/07/06 16:17:26;;;;;;;4.73;3.20;;;;;;;;;;5066242;28;24439;-55
2021/07/06 16:19:51;;;;;;;4.60;3.10;;;;;;;;;;5069809;28;24437;-51
2021/07/06 16:22:16;;;;;;;5.55;3.47;;;;;;;;;;5069689;28;24488;-52
2021/07/06 16:24:46;;;;;;;4.33;2.90;;;;;;;;;;5074389;28;24423;-52
2021/07/06 16:27:11;;;;;;;3.60;2.67;;;;;;;;;;5074489;28;24590;-53
2021/07/06 16:29:36;;;;;;;2.93;2.70;;;;;;;;;;5071954;28;25221;-53
2021/07/06 16:32:02;;;;;;;3.60;3.30;;;;;;;;;;5069920;28;24529;-52
2021/07/06 16:34:27;;;;;;;3.67;3.23;;;;;;;;;;5079931;28;24398;-52
2021/07/06 16:36:52;;;;;;;3.80;3.40;;;;;;;;;;5086222;28;24414;-53
2021/07/06 16:39:17;;;;;;;3.20;2.90;;;;;;;;;;5085077;28;24709;-52
2021/07/06 16:41:43;;;;;;;3.08;2.88;;;;;;;;;;5080731;28;24410;-54
2021/07/06 16:44:08;;;;;;;3.33;2.93;;;;;;;;;;5075823;28;24435;-54
2021/07/06 16:46:33;;;;;;;2.70;2.50;;;;;;;;;;5085688;28;24448;-54
2021/07/06 16:48:59;;;;;;;3.80;3.13;;;;;;;;;;5077650;28;24474;-54
2021/07/06 18:00:28;;;;;;;2.60;2.40;;;;;;;;;;5048504;28;25027;-55
2021/07/06 18:05:37;;;;;;;2.60;2.40;;;;;;;;;;5083448;28;24418;-56
2021/07/06 18:08:02;;;;;;;2.80;2.60;;;;;;;;;;5090779;28;24417;-55
2021/07/06 18:10:27;;;;;;;2.90;2.70;;;;;;;;;;5090594;28;24425;-55
2021/07/06 18:12:52;;;;;;;2.88;2.67;;;;;;;;;;5086632;28;24432;-55
2021/07/06 18:15:24;;;;;;;4.07;2.95;;;;;;;;;;5080232;28;24428;-55
2021/07/06 18:17:49;;;;;;;3.67;3.38;;;;;;;;;;5087170;28;24426;-55
2021/07/06 18:20:14;;;;;;;4.60;3.60;;;;;;;;;;5106193;28;24802;-55
2021/07/06 18:22:40;;;;;;;5.22;3.80;;;;;;;;;;5088000;28;24449;-55
2021/07/06 18:25:06;;;;;;;3.22;3.00;;;;;;;;;;5093718;28;24414;-55
2021/07/06 18:27:31;;;;;;;3.50;3.10;;;;;;;;;;5076840;27;24431;-55
2021/07/06 18:29:56;;;;;;;3.30;3.00;;;;;;;;;;5084249;28;25049;-55
2021/07/06 18:32:21;;;;;;;3.90;3.13;;;;;;;;;;5090119;28;24471;-56
2021/07/06 18:34:47;;;;;;;3.20;2.90;;;;;;;;;;5095193;28;24409;-55
2021/07/06 18:37:12;;;;;;;3.60;3.30;;;;;;;;;;5085729;28;24414;-53
2021/07/06 18:39:37;;;;;;;3.22;3.03;;;;;;;;;;5096115;28;24485;-55
2021/07/06 18:42:03;;;;;;;3.50;3.20;;;;;;;;;;5095498;28;24413;-55
2021/07/06 18:44:28;;;;;;;3.50;3.20;;;;;;;;;;5085947;28;24421;-54
2021/07/06 18:46:53;;;;;;;3.50;3.20;;;;;;;;;;5096057;28;24426;-54
2021/07/06 18:49:18;;;;;;;3.90;3.60;;;;;;;;;;5086197;28;25360;-55
2021/07/06 18:51:43;;;;;;;3.40;3.20;;;;;;;;;;5092950;28;24410;-55
2021/07/06 18:54:08;;;;;;;4.03;3.72;;;;;;;;;;5088227;28;24967;-54
2021/07/06 18:56:34;;;;;;;3.42;3.13;;;;;;;;;;5078352;28;24466;-54
2021/07/06 18:58:59;;;;;;;3.20;3.00;;;;;;;;;;5089455;28;24414;-54
2021/07/06 19:01:24;;;;;;;3.93;3.40;;;;;;;;;;5100717;28;24513;-54
2021/07/06 19:03:49;;;;;;;3.60;3.30;;;;;;;;;;5104962;28;25003;-54
2021/07/06 19:06:16;;;;;;;3.50;3.30;;;;;;;;;;5097682;28;24563;-54
2021/07/06 19:08:41;;;;;;;4.10;3.80;;;;;;;;;;5097894;28;24961;-54
2021/07/06 19:11:06;;;;;;;4.40;3.70;;;;;;;;;;5074444;28;24479;-54
2021/07/06 19:13:35;;;;;;;4.80;3.70;;;;;;;;;;5069731;28;24418;-55
2021/07/06 19:16:01;;;;;;;4.20;3.80;;;;;;;;;;5068096;28;24538;-54
2021/07/06 19:18:26;;;;;;;3.33;3.10;;;;;;;;;;5069191;28;25389;-54
2021/07/06 19:20:51;;;;;;;3.93;3.53;;;;;;;;;;5067539;28;25229;-54
2021/07/06 19:28:53;;;;;;;4.07;3.70;;;;;;;;;;5074755;28;24523;-55
2021/07/06 19:31:27;;;;;;;3.70;3.40;;;;;;;;;;5072951;28;24877;-54
2021/07/06 19:33:56;;;;;;;3.78;3.47;;;;;;;;;;5075889;28;24419;-54
2021/07/06 19:36:21;;;;;;;4.30;3.90;;;;;;;;;;5080222;28;24426;-54
2021/07/06 19:38:47;;;;;;;3.70;3.40;;;;;;;;;;5082917;28;24414;-54
2021/07/06 19:41:12;;;;;;;4.00;3.70;;;;;;;;;;5083598;28;24461;-54
2021/07/06 19:43:38;;;;;;;3.95;3.65;;;;;;;;;;5069765;28;24517;-53
2021/07/06 19:46:03;;;;;;;3.97;3.67;;;;;;;;;;5073201;28;25082;-53
2021/07/06 19:48:29;;;;;;;3.90;3.60;;;;;;;;;;5073953;28;25104;-54
2021/07/06 19:50:55;;;;;;;3.90;3.60;;;;;;;;;;5076722;28;24419;-55
2021/07/06 19:53:20;;;;;;;3.90;3.60;;;;;;;;;;5068480;28;24412;-54
2021/07/06 19:55:45;;;;;;;4.00;3.70;;;;;;;;;;5081683;28;24422;-54
2021/07/06 19:58:10;;;;;;;4.35;3.95;;;;;;;;;;5091472;28;25013;-53
2021/07/06 20:00:36;;;;;;;4.18;3.70;;;;;;;;;;5091828;28;25099;-54
2021/07/06 20:03:01;;;;;;;3.57;3.27;;;;;;;;;;5060210;28;24422;-53
2021/07/06 20:05:29;;;;;;;4.20;3.80;;;;;;;;;;5092052;28;24418;-54
2021/07/06 20:07:54;;;;;;;3.88;3.67;;;;;;;;;;5068077;28;24419;-54
2021/07/06 20:10:20;;;;;;;4.00;3.70;;;;;;;;;;5094060;28;24419;-54
2021/07/06 20:12:45;;;;;;;5.10;4.00;;;;;;;;;;5080672;28;24411;-54
2021/07/06 20:15:10;;;;;;;4.33;3.30;;;;;;;;;;5088182;27;24795;-54
2021/07/06 20:17:36;;;;;;;4.50;4.10;;;;;;;;;;5105104;28;24767;-53
2021/07/06 20:20:01;;;;;;;3.97;3.50;;;;;;;;;;5091157;28;24948;-55
2021/07/06 20:22:26;;;;;;;3.90;3.60;;;;;;;;;;5077114;28;24417;-56
2021/07/06 20:24:52;;;;;;;3.80;3.50;;;;;;;;;;5085996;28;24424;-55
2021/07/06 20:27:17;;;;;;;4.10;3.80;;;;;;;;;;5089295;28;24424;-54
2021/07/06 20:29:42;;;;;;;4.30;4.00;;;;;;;;;;5080419;28;24422;-54
2021/07/06 20:32:07;;;;;;;4.40;4.00;;;;;;;;;;5081068;28;24503;-53
2021/07/06 20:34:34;;;;;;;4.70;4.30;;;;;;;;;;5075643;28;24429;-55
2021/07/06 20:36:59;;;;;;;4.60;4.20;;;;;;;;;;5096480;28;24473;-55
2021/07/06 20:39:24;;;;;;;4.97;4.50;;;;;;;;;;5091801;28;24410;-55
2021/07/06 20:41:50;;;;;;;4.80;4.40;;;;;;;;;;5091046;28;24870;-55
2021/07/06 20:44:15;;;;;;;4.50;4.20;;;;;;;;;;5097132;28;25026;-55
2021/07/06 20:46:40;;;;;;;4.80;4.40;;;;;;;;;;5099634;28;24432;-55
2021/07/06 20:49:05;;;;;;;4.30;4.00;;;;;;;;;;5106985;28;25000;-55
2021/07/06 20:51:30;;;;;;;4.65;4.22;;;;;;;;;;5089767;28;24489;-55
2021/07/06 20:53:56;;;;;;;4.60;4.20;;;;;;;;;;5093294;28;24420;-54
2021/07/06 20:56:21;;;;;;;4.50;4.10;;;;;;;;;;5082860;28;24421;-55
2021/07/06 20:58:46;;;;;;;4.50;4.10;;;;;;;;;;5089927;28;24433;-55
2021/07/06 21:01:11;;;;;;;5.17;4.67;;;;;;;;;;5095551;28;24982;-55
2021/07/06 21:03:36;;;;;;;4.50;4.10;;;;;;;;;;5087325;28;25308;-55
2021/07/06 21:06:01;;;;;;;4.50;4.10;;;;;;;;;;5089751;28;24431;-55
2021/07/06 21:08:27;;;;;;;3.50;3.30;;;;;;;;;;5111817;28;24530;-55
2021/07/06 21:10:52;;;;;;;3.40;3.10;;;;;;;;;;5093795;28;24567;-55
2021/07/06 21:13:18;;;;;;;3.17;2.93;;;;;;;;;;5095700;28;24467;-55
2021/07/06 21:15:43;;;;;;;2.75;2.55;;;;;;;;;;5091985;28;24491;-54
2021/07/06 21:18:08;;;;;;;3.00;2.70;;;;;;;;;;5072390;28;24484;-55
2021/07/06 21:20:33;;;;;;;3.00;2.60;;;;;;;;;;5109056;28;24412;-54
2021/07/06 21:22:59;;;;;;;3.50;2.53;;;;;;;;;;5096953;28;24412;-55
2021/07/06 21:25:24;;;;;;;3.20;2.20;;;;;;;;;;5106457;28;24421;-55
2021/07/06 21:27:49;;;;;;;2.10;2.00;;;;;;;;;;5092347;28;24426;-55
2021/07/06 21:30:14;;;;;;;2.47;2.28;;;;;;;;;;5096264;28;24425;-55
2021/07/06 21:32:39;;;;;;;2.20;1.90;;;;;;;;;;5102094;28;24414;-55
2021/07/06 21:35:05;;;;;;;2.50;2.20;;;;;;;;;;5090741;28;24386;-55
2021/07/06 21:37:30;;;;;;;2.70;2.50;;;;;;;;;;5091692;28;24422;-55
2021/07/06 21:39:56;;;;;;;2.80;2.60;;;;;;;;;;5107448;28;25051;-55
2021/07/06 21:42:21;;;;;;;3.10;2.63;;;;;;;;;;5102611;28;24497;-55
2021/07/06 21:44:46;;;;;;;2.40;2.20;;;;;;;;;;5090274;28;25005;-55
2021/07/06 21:47:11;;;;;;;2.50;2.30;;;;;;;;;;5091891;28;24999;-55
2021/07/06 21:49:37;;;;;;;2.50;2.40;;;;;;;;;;5100268;28;24410;-55
2021/07/06 21:52:02;;;;;;;2.60;2.40;;;;;;;;;;5092441;27;24410;-55
2021/07/06 21:54:28;;;;;;;2.50;2.40;;;;;;;;;;5101564;28;24461;-55
2021/07/06 21:56:53;;;;;;;2.30;2.10;;;;;;;;;;5082216;28;25229;-55
2021/07/06 21:59:18;;;;;;;1.90;1.80;;;;;;;;;;5094860;28;24409;-55
2021/07/06 22:01:43;;;;;;;2.30;2.10;;;;;;;;;;5102558;28;24424;-55
2021/07/06 22:04:09;;;;;;;1.80;1.70;;;;;;;;;;5082332;28;25156;-55
2021/07/06 22:06:34;;;;;;;2.27;2.13;;;;;;;;;;5084095;28;24513;-54
2021/07/06 22:08:59;;;;;;;2.00;1.90;;;;;;;;;;5099128;28;24547;-55
2021/07/06 22:11:24;;;;;;;1.90;1.70;;;;;;;;;;5104831;28;25101;-55
2021/07/06 22:13:49;;;;;;;2.00;1.90;;;;;;;;;;5108345;28;24499;-53
2021/07/06 22:16:15;;;;;;;1.70;1.60;;;;;;;;;;5097792;28;24473;-53
2021/07/06 22:18:40;;;;;;;1.70;1.60;;;;;;;;;;5094192;28;25032;-53
2021/07/06 22:21:06;;;;;;;1.60;1.50;;;;;;;;;;5098891;28;24430;-54
2021/07/06 22:23:31;;;;;;;1.90;1.50;;;;;;;;;;5100729;28;24402;-54
2021/07/06 22:25:56;;;;;;;2.50;1.60;;;;;;;;;;5103843;28;25024;-53
2021/07/06 22:28:21;;;;;;;1.50;1.40;;;;;;;;;;5093901;28;24410;-54
2021/07/06 22:30:46;;;;;;;1.48;1.38;;;;;;;;;;5093413;28;24438;-54
2021/07/06 22:33:12;;;;;;;2.00;1.52;;;;;;;;;;5094642;28;24973;-53
2021/07/06 22:35:37;;;;;;;2.30;1.50;;;;;;;;;;5095391;28;24429;-54
2021/07/06 22:38:02;;;;;;;1.73;1.40;;;;;;;;;;5098821;28;24416;-53
2021/07/06 22:40:28;;;;;;;1.50;1.40;;;;;;;;;;5100955;28;25006;-53
2021/07/06 22:42:53;;;;;;;2.45;1.40;;;;;;;;;;5101682;28;24413;-53
2021/07/06 22:45:18;;;;;;;2.20;1.70;;;;;;;;;;5095281;28;24517;-54
2021/07/06 22:47:44;;;;;;;2.00;1.50;;;;;;;;;;5092889;28;24433;-53
2021/07/06 22:50:09;;;;;;;2.77;1.60;;;;;;;;;;5101408;28;24410;-54
2021/07/06 22:52:34;;;;;;;2.67;1.33;;;;;;;;;;5091326;28;24403;-53
2021/07/06 22:54:59;;;;;;;1.83;1.55;;;;;;;;;;5100158;28;24432;-53
2021/07/06 22:57:31;;;;;;;1.60;1.50;;;;;;;;;;5104771;28;24418;-54
2021/07/06 22:59:56;;;;;;;2.10;1.70;;;;;;;;;;5080208;28;24464;-53
2021/07/06 23:02:21;;;;;;;2.58;1.40;;;;;;;;;;5107684;28;24429;-53
2021/07/06 23:04:47;;;;;;;2.28;1.70;;;;;;;;;;5102117;28;25042;-53
2021/07/06 23:07:12;;;;;;;1.70;1.60;;;;;;;;;;5074092;28;24465;-53
2021/07/06 23:09:37;;;;;;;1.98;1.70;;;;;;;;;;5068541;28;24409;-53
2021/07/06 23:12:02;;;;;;;1.60;1.50;;;;;;;;;;5087753;28;24960;-54
2021/07/06 23:14:27;;;;;;;1.70;1.60;;;;;;;;;;5107397;28;24407;-53
2021/07/06 23:16:52;;;;;;;2.27;1.60;;;;;;;;;;5108873;28;24520;-53
2021/07/06 23:19:18;;;;;;;1.60;1.50;;;;;;;;;;5095331;28;24487;-53
2021/07/06 23:21:43;;;;;;;1.60;1.50;;;;;;;;;;5088401;28;24936;-53
2021/07/06 23:24:08;;;;;;;1.70;1.60;;;;;;;;;;5102336;28;24432;-54
2021/07/06 23:26:33;;;;;;;1.60;1.50;;;;;;;;;;5100232;28;24422;-53
2021/07/06 23:28:58;;;;;;;4.10;1.90;;;;;;;;;;5077904;28;24983;-53
2021/07/06 23:31:24;;;;;;;2.10;1.50;;;;;;;;;;5099661;28;24398;-53
2021/07/06 23:33:49;;;;;;;1.93;1.53;;;;;;;;;;5094064;28;24986;-53
2021/07/06 23:36:14;;;;;;;2.30;1.63;;;;;;;;;;5089091;28;24974;-53
2021/07/06 23:38:39;;;;;;;2.00;1.50;;;;;;;;;;5089086;28;24468;-53
2021/07/06 23:41:04;;;;;;;1.97;1.50;;;;;;;;;;5106567;28;24470;-53
2021/07/06 23:43:29;;;;;;;1.60;1.30;;;;;;;;;;5093510;28;24441;-53
2021/07/06 23:45:54;;;;;;;2.78;1.70;;;;;;;;;;5086962;28;24611;-53
2021/07/06 23:48:20;;;;;;;1.50;1.40;;;;;;;;;;5106252;28;24420;-53
2021/07/06 23:50:45;;;;;;;1.45;1.35;;;;;;;;;;5081771;28;24503;-53
2021/07/06 23:53:10;;;;;;;1.50;1.40;;;;;;;;;;5089812;28;24422;-53
2021/07/06 23:55:35;;;;;;;1.67;1.58;;;;;;;;;;5104356;28;25004;-53
2021/07/06 23:58:01;;;;;;;2.10;1.70;;;;;;;;;;5100697;28;24794;-54
